Time;durP1;ratioP1;P1;durP2;ratioP2;P2;SDS_P1;SDS_P2;PMS_P1;PMS_P2;Temp;Humidity;BMP_temperature;BMP_pressure;BME280_temperature;BME280_humidity;BME280_pressure;Samples;Min_cycle;Max_cycle;Signal;HPM_P1;HPM_P2
2023/06/26 00:01:29;;;;;;;11.53;7.30;;;;;;;16.31;71.33;100171.81;4232584;28;20235;-69
2023/06/26 00:03:56;;;;;;;11.13;7.20;;;;;;;16.31;71.32;100163.63;4240589;28;20231;-73
2023/06/26 00:06:25;;;;;;;11.00;6.50;;;;;;;16.36;70.98;100163.88;4232446;28;20299;-70
2023/06/26 00:08:54;;;;;;;14.30;6.87;;;;;;;16.31;71.27;100172.66;4226981;28;20905;-70
2023/06/26 00:11:21;;;;;;;13.70;6.97;;;;;;;16.31;71.88;100167.19;4234056;28;20235;-70
2023/06/26 00:13:48;;;;;;;11.60;6.23;;;;;;;16.26;71.89;100169.66;4230763;28;20275;-73
2023/06/26 00:16:15;;;;;;;12.33;6.37;;;;;;;16.16;72.59;100166.41;4236869;28;26050;-70
2023/06/26 00:18:41;;;;;;;13.00;6.60;;;;;;;16.17;72.56;100170.78;4224362;28;20300;-71
2023/06/26 00:21:08;;;;;;;12.03;6.27;;;;;;;16.25;72.16;100156.19;4222550;28;23881;-69
2023/06/26 00:23:36;;;;;;;12.30;7.57;;;;;;;16.10;73.26;100159.81;4228405;28;20236;-73
2023/06/26 00:26:06;;;;;;;11.13;6.73;;;;;;;16.02;73.43;100162.63;4235582;28;20278;-70
2023/06/26 00:28:32;;;;;;;9.83;6.47;;;;;;;16.05;73.28;100162.25;4230925;28;20231;-72
2023/06/26 00:30:59;;;;;;;16.30;7.20;;;;;;;15.97;73.97;100160.47;4231901;28;20234;-72
2023/06/26 00:33:26;;;;;;;13.03;6.93;;;;;;;16.03;73.67;100167.06;4221399;28;20910;-75
2023/06/26 00:35:53;;;;;;;14.07;7.20;;;;;;;16.10;73.37;100165.25;4237664;28;25329;-70
2023/06/26 00:38:20;;;;;;;9.93;6.87;;;;;;;16.22;73.17;100165.63;4231343;28;20611;-72
2023/06/26 00:40:46;;;;;;;14.27;7.33;;;;;;;16.11;73.25;100171.56;4235405;28;20241;-73
2023/06/26 00:43:13;;;;;;;11.03;7.63;;;;;;;16.06;73.53;100166.66;4234632;28;25414;-74
2023/06/26 00:45:40;;;;;;;12.77;6.83;;;;;;;16.06;73.73;100158.47;4231545;28;20231;-73
2023/06/26 00:48:11;;;;;;;13.70;7.30;;;;;;;16.05;73.69;100151.31;4238911;28;25266;-74
2023/06/26 00:50:38;;;;;;;13.97;6.87;;;;;;;15.98;74.16;100155.84;4230336;28;20294;-71
2023/06/26 00:53:05;;;;;;;12.57;6.73;;;;;;;15.88;74.83;100155.31;4229299;28;20247;-71
2023/06/26 00:55:32;;;;;;;15.73;7.00;;;;;;;15.96;74.53;100157.94;4227669;28;20297;-72
2023/06/26 00:57:58;;;;;;;11.87;6.87;;;;;;;15.96;74.35;100153.31;4240585;28;22340;-71
2023/06/26 01:00:25;;;;;;;18.07;8.53;;;;;;;15.88;74.70;100160.78;4224607;28;22247;-70
2023/06/26 01:02:52;;;;;;;13.57;7.47;;;;;;;15.71;75.78;100144.53;4226147;28;20549;-69
2023/06/26 01:05:20;;;;;;;11.33;7.20;;;;;;;15.75;75.44;100142.28;4222682;28;20323;-73
2023/06/26 01:07:50;;;;;;;13.83;7.43;;;;;;;15.63;75.95;100142.78;4224730;28;20601;-69
2023/06/26 01:10:19;;;;;;;13.00;6.93;;;;;;;15.69;75.78;100143.88;4230883;28;20511;-72
2023/06/26 01:12:45;;;;;;;10.60;7.30;;;;;;;15.60;76.03;100145.88;4231269;28;20621;-70
2023/06/26 01:15:12;;;;;;;16.70;8.13;;;;;;;15.51;76.43;100138.78;4230617;28;22646;-69
2023/06/26 01:17:39;;;;;;;11.93;7.10;;;;;;;15.50;76.75;100151.59;4228641;28;25999;-72
2023/06/26 01:20:08;;;;;;;13.27;7.80;;;;;;;15.45;76.50;100134.94;4226891;28;20242;-71
2023/06/26 01:22:50;;;;;;;11.60;7.47;;;;;;;15.55;76.30;100139.28;4242231;28;20230;-72
2023/06/26 01:25:38;;;;;;;11.30;7.27;;;;;;;15.51;76.13;100131.47;4241414;28;20651;-71
2023/06/26 01:28:07;;;;;;;16.20;7.67;;;;;;;15.51;75.66;100134.22;4216341;28;20235;-72
2023/06/26 01:30:44;;;;;;;11.83;7.33;;;;;;;15.52;75.35;100124.13;4237379;28;22401;-69
2023/06/26 01:33:12;;;;;;;23.53;8.47;;;;;;;15.47;75.22;100130.13;4229725;28;20235;-69
2023/06/26 01:35:39;;;;;;;19.63;8.93;;;;;;;15.39;75.52;100129.41;4229958;28;20219;-73
2023/06/26 01:38:20;;;;;;;15.83;7.83;;;;;;;15.35;75.57;100134.38;4228587;28;20596;-70
2023/06/26 01:40:47;;;;;;;16.47;7.47;;;;;;;15.33;75.64;100126.34;4226955;28;20270;-73
2023/06/26 01:43:20;;;;;;;17.10;8.10;;;;;;;15.23;76.14;100124.94;4236330;28;20373;-70
2023/06/26 01:45:51;;;;;;;17.80;7.50;;;;;;;15.24;76.29;100129.34;4230683;28;26052;-69
2023/06/26 01:48:21;;;;;;;22.37;8.50;;;;;;;15.23;76.37;100125.81;4250114;28;20231;-70
2023/06/26 01:50:48;;;;;;;19.13;8.00;;;;;;;15.21;76.67;100125.13;4219631;28;20298;-69
2023/06/26 01:53:20;;;;;;;19.97;7.97;;;;;;;15.15;76.59;100129.44;4231359;28;20239;-70
2023/06/26 01:55:51;;;;;;;11.87;7.17;;;;;;;15.10;77.03;100123.69;4225234;28;20309;-71
2023/06/26 01:58:20;;;;;;;12.17;7.50;;;;;;;15.08;77.25;100120.31;4227051;28;23911;-70
2023/06/26 02:00:47;;;;;;;17.53;7.30;;;;;;;15.10;77.16;100117.41;4235951;28;20872;-72
2023/06/26 02:03:13;;;;;;;18.40;7.87;;;;;;;15.07;77.26;100120.50;4242832;28;22304;-69
2023/06/26 02:05:40;;;;;;;19.40;7.37;;;;;;;15.06;77.42;100127.84;4226921;28;20286;-70
2023/06/26 02:08:09;;;;;;;19.73;8.03;;;;;;;15.05;77.27;100120.69;4230041;28;21619;-71
2023/06/26 02:10:36;;;;;;;21.27;9.17;;;;;;;15.11;76.74;100119.09;4226506;28;20291;-75
2023/06/26 02:13:03;;;;;;;24.13;8.47;;;;;;;15.09;76.59;100118.44;4226261;28;20274;-70
2023/06/26 02:15:30;;;;;;;29.23;9.27;;;;;;;15.09;75.81;100122.00;4212324;28;20747;-70
2023/06/26 02:17:56;;;;;;;24.17;8.80;;;;;;;14.99;76.25;100122.28;4234868;28;21754;-71
2023/06/26 02:20:23;;;;;;;29.13;9.53;;;;;;;14.94;76.03;100124.72;4232404;28;20258;-72
2023/06/26 02:22:49;;;;;;;19.93;8.00;;;;;;;14.97;75.93;100120.75;4216119;28;20243;-69
2023/06/26 02:25:17;;;;;;;24.77;9.60;;;;;;;14.96;75.80;100114.44;4232649;28;20297;-73
2023/06/26 02:27:44;;;;;;;21.10;8.90;;;;;;;14.93;75.33;100113.97;4235422;28;20239;-69
2023/06/26 02:30:11;;;;;;;20.50;8.33;;;;;;;14.95;75.34;100110.06;4229860;28;20243;-70
2023/06/26 02:32:37;;;;;;;16.77;7.90;;;;;;;15.02;75.06;100107.41;4227962;28;20284;-73
2023/06/26 02:35:04;;;;;;;24.00;8.13;;;;;;;15.07;74.99;100110.44;4238830;28;20879;-73
2023/06/26 02:37:31;;;;;;;17.90;8.27;;;;;;;15.09;74.83;100110.25;4238654;28;20649;-73
2023/06/26 02:39:58;;;;;;;16.70;7.23;;;;;;;15.05;75.06;100094.25;4228884;28;20323;-72
2023/06/26 02:42:24;;;;;;;17.27;8.17;;;;;;;15.11;75.19;100108.19;4249720;28;21238;-71
2023/06/26 02:44:51;;;;;;;18.67;8.87;;;;;;;15.13;75.11;100109.72;4233427;28;21375;-71
2023/06/26 02:47:18;;;;;;;22.00;9.13;;;;;;;15.14;75.18;100114.13;4239803;28;21088;-72
2023/06/26 02:49:45;;;;;;;19.17;8.47;;;;;;;15.14;75.13;100113.28;4246621;28;20309;-71
2023/06/26 02:52:11;;;;;;;18.27;8.67;;;;;;;15.15;75.15;100118.53;4242009;28;20261;-72
2023/06/26 02:54:38;;;;;;;17.33;7.67;;;;;;;15.31;74.57;100103.91;4224954;28;21266;-74
2023/06/26 02:57:05;;;;;;;19.23;7.70;;;;;;;15.26;74.62;100106.31;4229951;28;20236;-73
2023/06/26 02:59:32;;;;;;;24.33;8.60;;;;;;;15.26;74.91;100113.66;4247592;28;20242;-69
2023/06/26 03:01:59;;;;;;;17.17;8.23;;;;;;;15.32;74.55;100112.91;4225620;28;20227;-70
2023/06/26 03:04:25;;;;;;;20.27;8.73;;;;;;;15.32;74.66;100105.59;4249817;28;22358;-73
2023/06/26 03:06:52;;;;;;;13.97;7.40;;;;;;;15.41;74.40;100108.25;4238556;28;20333;-73
2023/06/26 03:09:19;;;;;;;19.30;8.17;;;;;;;15.39;74.75;100104.84;4233799;28;20826;-73
2023/06/26 03:11:45;;;;;;;16.70;8.63;;;;;;;15.46;74.38;100109.34;4216757;28;20381;-72
2023/06/26 03:14:12;;;;;;;16.70;8.47;;;;;;;15.44;74.68;100114.16;4232191;28;20249;-69
2023/06/26 03:16:39;;;;;;;22.40;9.10;;;;;;;15.43;74.63;100111.59;4261409;28;20574;-71
2023/06/26 03:19:05;;;;;;;21.10;9.17;;;;;;;15.43;73.73;100101.56;4238684;28;20244;-71
2023/06/26 03:21:32;;;;;;;19.47;8.80;;;;;;;15.48;73.83;100098.28;4224600;28;20308;-71
2023/06/26 03:23:59;;;;;;;18.73;8.53;;;;;;;15.57;73.37;100108.03;4215293;28;22336;-70
2023/06/26 03:26:27;;;;;;;21.77;8.53;;;;;;;15.59;73.01;100100.50;4220175;28;26590;-72
2023/06/26 03:28:54;;;;;;;16.57;8.87;;;;;;;15.72;72.84;100102.59;4232212;28;21144;-69
2023/06/26 03:31:21;;;;;;;22.57;9.80;;;;;;;15.63;72.52;100118.22;4238123;28;20349;-69
2023/06/26 03:33:48;;;;;;;21.07;9.97;;;;;;;15.59;73.21;100111.44;4236036;28;20231;-69
2023/06/26 03:36:14;;;;;;;20.87;9.57;;;;;;;15.52;73.17;100115.94;4227568;28;20427;-72
2023/06/26 03:38:41;;;;;;;22.17;10.07;;;;;;;15.32;74.70;100112.91;4233241;28;20302;-72
2023/06/26 03:41:07;;;;;;;23.43;9.07;;;;;;;15.28;75.35;100115.16;4226318;28;20231;-75
2023/06/26 03:43:35;;;;;;;16.30;8.80;;;;;;;15.32;74.91;100111.06;4218982;28;25978;-72
2023/06/26 03:46:02;;;;;;;20.53;9.33;;;;;;;15.30;75.04;100113.13;4219109;28;20231;-73
2023/06/26 03:48:28;;;;;;;17.60;9.13;;;;;;;15.31;74.91;100109.34;4226795;28;20224;-71
2023/06/26 03:50:55;;;;;;;19.57;9.03;;;;;;;15.33;75.04;100122.78;4235012;28;25029;-72
2023/06/26 03:53:22;;;;;;;19.33;9.97;;;;;;;15.36;75.24;100120.53;4237340;28;20305;-74
2023/06/26 03:55:48;;;;;;;21.47;10.10;;;;;;;15.34;74.68;100113.59;4233895;28;21551;-71
2023/06/26 03:58:15;;;;;;;19.47;10.50;;;;;;;15.39;74.54;100119.31;4225590;28;20235;-71
2023/06/26 04:00:41;;;;;;;17.90;10.03;;;;;;;15.39;74.46;100107.56;4232510;28;20231;-72
2023/06/26 04:03:09;;;;;;;21.13;10.33;;;;;;;15.40;74.76;100112.00;4232756;28;20861;-70
2023/06/26 04:05:36;;;;;;;18.27;9.93;;;;;;;15.50;74.01;100112.53;4238576;28;20234;-72
2023/06/26 04:08:03;;;;;;;23.27;10.30;;;;;;;15.51;74.37;100112.38;4211172;28;20365;-71
2023/06/26 04:10:30;;;;;;;17.57;9.67;;;;;;;15.61;74.15;100116.69;4245750;28;20252;-69
2023/06/26 04:12:57;;;;;;;19.37;9.03;;;;;;;15.73;73.80;100117.06;4232003;28;21857;-71
2023/06/26 04:15:23;;;;;;;19.50;10.13;;;;;;;15.74;74.00;100119.63;4231811;28;20395;-69
2023/06/26 04:17:50;;;;;;;20.57;10.10;;;;;;;15.86;73.79;100117.28;4224286;28;20285;-71
2023/06/26 04:20:17;;;;;;;19.67;9.93;;;;;;;16.00;73.20;100119.16;4230765;28;20279;-72
2023/06/26 04:22:44;;;;;;;17.70;9.50;;;;;;;16.11;73.10;100117.81;4233386;28;21154;-70
2023/06/26 04:25:11;;;;;;;17.80;9.40;;;;;;;16.44;72.42;100116.50;4222194;28;21132;-71
2023/06/26 04:27:38;;;;;;;20.73;8.67;;;;;;;16.71;71.37;100114.00;4234187;28;20276;-71
2023/06/26 04:30:07;;;;;;;19.03;9.73;;;;;;;16.81;71.11;100111.81;4232287;28;20316;-71
2023/06/26 04:32:35;;;;;;;16.60;8.90;;;;;;;16.88;70.96;100115.44;4236644;28;20281;-68
2023/06/26 04:35:02;;;;;;;20.63;9.33;;;;;;;17.15;70.58;100115.66;4246392;28;20568;-70
2023/06/26 04:37:29;;;;;;;17.13;8.90;;;;;;;17.48;69.28;100112.34;4232048;28;20231;-72
2023/06/26 04:39:56;;;;;;;17.20;9.50;;;;;;;17.60;68.49;100120.81;4228334;28;20281;-74
2023/06/26 04:42:22;;;;;;;14.10;7.97;;;;;;;17.92;68.23;100117.63;4232558;28;25274;-69
2023/06/26 04:44:49;;;;;;;16.93;8.40;;;;;;;18.27;66.92;100117.59;4223449;28;21140;-70
2023/06/26 04:47:16;;;;;;;16.10;8.53;;;;;;;18.51;65.82;100116.16;4241545;28;20235;-74
2023/06/26 04:49:45;;;;;;;18.87;8.90;;;;;;;18.61;65.39;100121.22;4225124;28;21639;-70
2023/06/26 04:52:13;;;;;;;14.47;8.37;;;;;;;18.41;65.28;100123.94;4235750;28;20251;-72
2023/06/26 04:54:40;;;;;;;18.90;9.00;;;;;;;18.32;65.16;100112.31;4226550;28;20231;-72
2023/06/26 04:57:06;;;;;;;18.43;8.83;;;;;;;17.93;66.40;100120.16;4213098;28;20232;-71
2023/06/26 04:59:33;;;;;;;16.77;8.47;;;;;;;18.18;65.83;100115.03;4218472;28;22443;-71
2023/06/26 05:02:00;;;;;;;13.70;8.37;;;;;;;17.84;67.27;100122.22;4228940;28;20228;-70
2023/06/26 05:04:26;;;;;;;20.00;8.83;;;;;;;17.76;66.85;100116.06;4243573;28;22459;-73
2023/06/26 05:06:53;;;;;;;19.87;8.63;;;;;;;18.05;66.08;100120.47;4232208;28;20314;-73
2023/06/26 05:09:20;;;;;;;14.90;8.10;;;;;;;18.17;65.76;100121.56;4238680;28;21164;-74
2023/06/26 05:11:46;;;;;;;15.77;8.63;;;;;;;18.34;65.56;100127.50;4242803;28;20516;-72
2023/06/26 05:14:13;;;;;;;14.97;7.73;;;;;;;18.61;65.18;100121.22;4233552;28;20247;-70
2023/06/26 05:16:40;;;;;;;15.43;8.17;;;;;;;19.06;64.17;100127.00;4240205;28;20279;-72
2023/06/26 05:19:07;;;;;;;15.87;9.17;;;;;;;19.30;62.75;100121.94;4235498;28;20238;-70
2023/06/26 05:21:34;;;;;;;16.20;8.33;;;;;;;19.46;62.30;100117.88;4240607;28;20226;-72
2023/06/26 05:24:02;;;;;;;12.53;7.67;;;;;;;20.26;59.97;100105.81;4235745;28;20232;-70
2023/06/26 05:26:29;;;;;;;15.47;8.13;;;;;;;20.79;57.56;100112.06;4227612;28;20538;-71
2023/06/26 05:28:56;;;;;;;15.17;8.57;;;;;;;20.83;57.36;100105.88;4236874;28;20231;-71
2023/06/26 05:31:23;;;;;;;14.17;8.03;;;;;;;21.79;53.90;100102.03;4231558;28;20244;-72
2023/06/26 05:33:51;;;;;;;13.43;7.07;;;;;;;22.62;52.89;100103.28;4254871;28;20234;-71
2023/06/26 05:36:18;;;;;;;18.87;8.80;;;;;;;23.32;51.06;100100.88;4235883;28;20321;-69
2023/06/26 05:38:45;;;;;;;16.13;7.33;;;;;;;23.95;49.53;100097.56;4231782;28;20300;-71
2023/06/26 05:41:12;;;;;;;15.33;7.57;;;;;;;24.42;48.64;100107.63;4238067;28;20292;-70
2023/06/26 05:43:38;;;;;;;17.23;7.50;;;;;;;25.28;46.50;100099.16;4234543;28;20227;-68
2023/06/26 05:46:05;;;;;;;18.47;8.40;;;;;;;25.87;44.12;100100.53;4252967;28;20231;-66
2023/06/26 05:48:31;;;;;;;25.30;8.40;;;;;;;25.23;45.26;100098.22;4228161;28;21001;-70
2023/06/26 05:50:58;;;;;;;19.43;8.10;;;;;;;25.84;45.10;100100.22;4236559;28;22093;-70
2023/06/26 05:53:25;;;;;;;16.83;8.17;;;;;;;26.32;44.26;100092.25;4230666;28;20858;-69
2023/06/26 05:55:52;;;;;;;17.30;7.53;;;;;;;26.99;43.27;100098.44;4237589;28;20246;-71
2023/06/26 05:58:20;;;;;;;13.75;7.57;;;;;;;27.55;42.19;100097.19;4235012;28;20243;-68
2023/06/26 06:00:47;;;;;;;15.07;7.40;;;;;;;27.33;42.04;100100.91;4235627;28;20248;-66
2023/06/26 06:03:13;;;;;;;12.85;6.47;;;;;;;27.87;41.53;100096.22;4239377;28;20295;-71
2023/06/26 06:05:40;;;;;;;16.30;6.93;;;;;;;28.11;41.16;100091.91;4225365;28;20276;-68
2023/06/26 06:08:07;;;;;;;12.93;6.97;;;;;;;28.93;40.52;100091.22;4244320;28;20860;-66
2023/06/26 06:10:33;;;;;;;13.02;6.47;;;;;;;27.32;42.44;100105.63;4232235;28;20348;-67
2023/06/26 06:13:00;;;;;;;10.50;6.07;;;;;;;29.04;40.00;100089.25;4228692;28;20319;-67
2023/06/26 06:15:27;;;;;;;8.68;5.38;;;;;;;31.28;35.36;100104.69;4241239;28;22037;-68
2023/06/26 06:17:56;;;;;;;13.32;6.82;;;;;;;32.32;33.00;100099.59;4247057;28;20404;-69
2023/06/26 06:20:23;;;;;;;11.63;6.07;;;;;;;31.75;33.23;100096.69;4233388;28;20256;-68
2023/06/26 06:22:49;;;;;;;9.82;4.70;;;;;;;33.32;30.90;100090.16;4241126;28;25771;-69
2023/06/26 06:25:16;;;;;;;10.68;4.65;;;;;;;34.44;29.02;100090.16;4235286;28;20520;-68
2023/06/26 06:27:43;;;;;;;7.18;4.55;;;;;;;33.34;30.42;100092.66;4228709;28;20467;-66
2023/06/26 06:30:11;;;;;;;11.65;5.05;;;;;;;34.50;28.72;100090.84;4238292;28;20235;-67
2023/06/26 06:32:37;;;;;;;12.48;5.43;;;;;;;33.42;30.03;100083.53;4249524;28;20263;-67
2023/06/26 06:35:09;;;;;;;11.40;5.13;;;;;;;33.92;29.35;100084.81;4247587;28;20238;-70
2023/06/26 06:37:38;;;;;;;8.02;4.32;;;;;;;32.82;31.48;100090.72;4259524;28;20313;-65
2023/06/26 06:40:10;;;;;;;9.05;4.65;;;;;;;33.72;29.61;100086.88;4261528;28;20227;-69
2023/06/26 06:42:37;;;;;;;12.45;5.57;;;;;;;35.15;27.26;100086.69;4254558;28;20264;-55
2023/06/26 06:45:04;;;;;;;9.20;5.15;;;;;;;33.66;29.61;100085.28;4275826;28;20244;-67
2023/06/26 06:47:33;;;;;;;6.78;4.60;;;;;;;35.79;26.47;100084.69;4249920;28;20237;-47
2023/06/26 06:50:07;;;;;;;7.97;4.50;;;;;;;35.88;26.19;100081.91;4269027;28;21965;-68
2023/06/26 06:52:39;;;;;;;10.25;4.63;;;;;;;37.22;24.09;100078.47;4271242;28;20454;-70
2023/06/26 06:55:08;;;;;;;8.68;5.03;;;;;;;33.59;29.52;100082.06;4229871;28;21744;-72
2023/06/26 06:57:38;;;;;;;9.73;4.80;;;;;;;34.82;27.84;100069.25;4247535;28;20418;-72
2023/06/26 07:00:08;;;;;;;6.65;4.95;;;;;;;31.93;32.01;100081.88;4240661;28;20385;-72
2023/06/26 07:02:39;;;;;;;6.97;4.88;;;;;;;30.79;33.99;100078.53;4264663;28;20227;-70
2023/06/26 07:05:06;;;;;;;8.40;4.70;;;;;;;32.00;32.40;100075.91;4242411;28;20243;-69
2023/06/26 07:07:34;;;;;;;9.45;4.70;;;;;;;31.57;33.81;100070.28;4276761;28;21752;-74
2023/06/26 07:10:03;;;;;;;12.70;4.78;;;;;;;33.21;30.13;100074.63;4258258;28;22829;-68
2023/06/26 07:12:30;;;;;;;8.30;4.93;;;;;;;32.72;30.95;100085.25;4222213;28;20587;-68
2023/06/26 07:14:58;;;;;;;11.57;4.90;;;;;;;33.36;30.06;100073.53;4241505;28;21613;-68
2023/06/26 07:17:25;;;;;;;7.13;4.53;;;;;;;34.34;28.30;100071.50;4257146;28;21431;-69
2023/06/26 07:19:51;;;;;;;7.75;5.00;;;;;;;33.04;30.46;100072.44;4236068;28;20562;-46
2023/06/26 07:22:21;;;;;;;8.38;4.85;;;;;;;30.39;34.34;100066.53;4264205;28;22920;-50
2023/06/26 07:24:48;;;;;;;7.47;4.35;;;;;;;30.25;34.17;100066.34;4243209;28;21173;-73
2023/06/26 07:27:15;;;;;;;9.13;4.83;;;;;;;29.67;35.29;100064.91;4246641;28;21763;-71
2023/06/26 07:29:42;;;;;;;7.32;4.43;;;;;;;29.23;36.35;100069.19;4220880;28;21747;-71
2023/06/26 07:32:11;;;;;;;7.90;4.20;;;;;;;29.69;35.65;100069.09;4236686;28;20264;-70
2023/06/26 07:34:40;;;;;;;10.63;4.45;;;;;;;29.43;34.52;100061.91;4245024;28;20235;-70
2023/06/26 07:37:07;;;;;;;8.95;4.50;;;;;;;28.81;36.87;100067.56;4239862;28;20434;-70
2023/06/26 07:39:34;;;;;;;6.88;4.22;;;;;;;29.33;34.71;100074.78;4224434;28;20638;-71
2023/06/26 07:42:01;;;;;;;7.93;4.67;;;;;;;28.94;35.53;100069.78;4230526;28;20305;-73
2023/06/26 07:44:27;;;;;;;7.03;4.70;;;;;;;28.57;36.24;100059.72;4240869;28;20311;-73
2023/06/26 07:46:54;;;;;;;12.05;4.38;;;;;;;29.19;35.98;100068.91;4219397;28;25598;-75
2023/06/26 07:49:21;;;;;;;12.00;5.18;;;;;;;29.60;35.71;100069.97;4217361;28;22853;-68
2023/06/26 07:51:47;;;;;;;10.18;4.38;;;;;;;28.62;36.66;100068.91;4239329;28;20425;-71
2023/06/26 07:54:14;;;;;;;8.87;5.30;;;;;;;28.65;36.78;100069.44;4222721;28;20259;-70
2023/06/26 07:56:59;;;;;;;9.10;4.68;;;;;;;30.28;34.25;100062.97;4243883;28;21679;-71
2023/06/26 07:59:27;;;;;;;9.48;4.80;;;;;;;29.62;35.49;100068.56;4225729;28;20230;-70
2023/06/26 08:01:55;;;;;;;10.43;4.60;;;;;;;29.75;36.31;100064.34;4227997;28;20243;-71
2023/06/26 08:04:24;;;;;;;9.45;4.20;;;;;;;30.09;35.22;100062.81;4243188;28;20456;-70
2023/06/26 08:06:53;;;;;;;7.60;4.18;;;;;;;29.29;36.38;100062.47;4231412;28;21144;-68
2023/06/26 08:09:21;;;;;;;9.23;4.47;;;;;;;28.36;37.62;100064.41;4220448;28;20239;-70
2023/06/26 08:11:47;;;;;;;9.80;5.05;;;;;;;28.06;38.17;100058.47;4231557;28;20257;-72
2023/06/26 08:14:15;;;;;;;6.85;4.32;;;;;;;28.22;36.45;100058.53;4238257;28;21373;-71
2023/06/26 08:16:42;;;;;;;5.43;3.80;;;;;;;29.21;34.51;100065.84;4233879;28;20289;-71
2023/06/26 08:19:13;;;;;;;6.90;3.87;;;;;;;29.36;33.13;100056.66;4239096;28;21183;-73
2023/06/26 08:21:40;;;;;;;6.15;3.92;;;;;;;30.07;32.49;100054.69;4211739;28;20330;-74
2023/06/26 08:24:07;;;;;;;14.85;4.88;;;;;;;29.79;35.35;100059.84;4223422;28;20252;-72
2023/06/26 08:26:34;;;;;;;7.00;3.65;;;;;;;29.31;32.88;100053.84;4246428;28;20219;-74
2023/06/26 08:29:07;;;;;;;7.57;3.95;;;;;;;28.68;34.86;100050.25;4258843;28;20240;-71
2023/06/26 08:31:38;;;;;;;10.00;4.03;;;;;;;28.13;35.97;100049.88;4239349;28;20233;-73
2023/06/26 08:34:06;;;;;;;8.27;4.65;;;;;;;29.11;34.37;100044.38;4214752;28;20591;-72
2023/06/26 08:36:32;;;;;;;7.43;4.47;;;;;;;29.14;32.09;100051.34;4227774;28;20226;-71
2023/06/26 08:38:59;;;;;;;5.38;3.83;;;;;;;28.09;33.53;100037.66;4245423;28;26059;-75
2023/06/26 08:41:25;;;;;;;7.00;3.50;;;;;;;28.50;31.94;100043.28;4244164;28;22022;-73
2023/06/26 08:43:52;;;;;;;4.47;3.13;;;;;;;28.11;33.40;100038.19;4253448;28;20230;-72
2023/06/26 08:46:19;;;;;;;5.60;3.42;;;;;;;29.01;32.59;100045.25;4248057;28;20293;-72
2023/06/26 08:48:59;;;;;;;7.78;3.92;;;;;;;29.30;32.64;100038.22;4246131;28;20227;-71
2023/06/26 08:51:30;;;;;;;5.80;3.58;;;;;;;27.96;35.85;100036.19;4227257;28;20305;-72
2023/06/26 08:54:01;;;;;;;7.13;4.40;;;;;;;27.07;37.49;100049.88;4227043;28;21539;-69
2023/06/26 08:56:37;;;;;;;7.05;4.30;;;;;;;26.44;38.65;100048.50;4234899;28;22355;-76
2023/06/26 08:59:04;;;;;;;6.37;4.40;;;;;;;26.20;39.66;100045.22;4224992;28;20227;-71
2023/06/26 09:01:31;;;;;;;5.33;4.10;;;;;;;26.12;40.08;100040.97;4242858;28;20239;-70
2023/06/26 09:03:58;;;;;;;6.78;4.20;;;;;;;25.89;39.77;100045.66;4240164;28;20955;-73
2023/06/26 09:06:25;;;;;;;6.47;3.83;;;;;;;26.52;37.87;100042.47;4243905;28;20709;-55
2023/06/26 09:08:52;;;;;;;7.30;4.07;;;;;;;25.97;38.96;100040.75;4254157;28;25144;-55
2023/06/26 09:11:18;;;;;;;7.03;3.50;;;;;;;25.79;37.76;100042.78;4239088;28;22369;-59
2023/06/26 09:13:47;;;;;;;7.23;4.20;;;;;;;26.17;38.14;100042.97;4249914;28;20295;-51
2023/06/26 09:16:14;;;;;;;10.10;3.87;;;;;;;26.13;38.71;100033.50;4298250;28;20665;-48
2023/06/26 09:18:42;;;;;;;5.57;3.70;;;;;;;26.67;37.73;100041.75;4278765;28;20242;-49
2023/06/26 09:21:11;;;;;;;6.13;3.77;;;;;;;26.71;37.08;100030.97;4294275;28;23458;-52
2023/06/26 09:23:39;;;;;;;6.82;3.90;;;;;;;27.43;35.95;100027.88;4294360;28;21141;-52
2023/06/26 09:26:06;;;;;;;10.70;3.87;;;;;;;27.43;36.16;100030.66;4303816;28;20236;-56
2023/06/26 09:28:34;;;;;;;4.33;3.43;;;;;;;26.93;35.16;100030.06;4321647;28;20696;-51
2023/06/26 09:31:07;;;;;;;8.37;3.80;;;;;;;26.67;36.24;100027.88;4243558;28;20498;-49
2023/06/26 09:33:37;;;;;;;4.40;3.60;;;;;;;27.40;34.77;100028.41;4239286;28;20235;-46
2023/06/26 09:36:26;;;;;;;7.23;3.93;;;;;;;27.83;33.36;100018.88;4244929;28;20231;-73
2023/06/26 09:38:53;;;;;;;8.97;3.93;;;;;;;28.01;34.66;100011.16;4247631;28;20270;-72
2023/06/26 09:41:20;;;;;;;9.40;3.70;;;;;;;27.29;36.38;100013.63;4240841;28;21730;-73
2023/06/26 09:43:51;;;;;;;7.27;3.53;;;;;;;26.89;36.29;100021.41;4247339;28;20227;-70
2023/06/26 09:46:23;;;;;;;7.73;4.23;;;;;;;27.18;35.73;100018.28;4241933;28;22699;-70
2023/06/26 09:49:00;;;;;;;7.77;3.53;;;;;;;27.81;34.53;100014.69;4252329;28;20922;-72
2023/06/26 09:51:29;;;;;;;6.30;3.72;;;;;;;27.68;35.16;100016.06;4251119;28;20257;-70
2023/06/26 09:53:55;;;;;;;4.35;3.13;;;;;;;27.89;34.11;100008.63;4239612;28;25488;-70
2023/06/26 09:56:23;;;;;;;6.73;3.33;;;;;;;28.19;31.79;100014.56;4245434;28;20293;-70
2023/06/26 09:58:50;;;;;;;6.37;3.13;;;;;;;27.89;31.32;100016.97;4243306;28;20223;-70
2023/06/26 10:01:18;;;;;;;6.03;3.33;;;;;;;27.26;32.86;100014.16;4248347;28;20405;-73
2023/06/26 10:03:45;;;;;;;6.55;3.63;;;;;;;27.55;33.20;100016.56;4242351;28;20335;-71
2023/06/26 10:06:13;;;;;;;8.20;3.40;;;;;;;28.27;32.30;100008.47;4239760;28;20484;-71
2023/06/26 10:08:41;;;;;;;4.90;3.27;;;;;;;27.81;32.31;100003.56;4228532;28;20629;-71
2023/06/26 10:11:14;;;;;;;6.63;3.13;;;;;;;27.69;32.09;100012.16;4232175;28;20243;-72
2023/06/26 10:13:46;;;;;;;8.03;3.03;;;;;;;27.83;32.82;100004.97;4242327;28;20552;-74
2023/06/26 10:16:13;;;;;;;5.13;3.77;;;;;;;27.43;33.99;100008.44;4245024;28;20589;-72
2023/06/26 10:18:40;;;;;;;6.80;3.23;;;;;;;26.42;35.93;100011.84;4234547;28;22026;-74
2023/06/26 10:21:07;;;;;;;10.43;3.90;;;;;;;26.08;37.20;100009.31;4237638;28;22359;-71
2023/06/26 10:23:36;;;;;;;6.13;3.40;;;;;;;26.14;37.39;100002.72;4242465;28;20232;-70
2023/06/26 10:26:03;;;;;;;7.83;3.40;;;;;;;26.28;37.24;100000.38;4253243;28;22849;-72
2023/06/26 10:28:31;;;;;;;7.10;3.27;;;;;;;26.64;37.32;99994.25;4248138;28;22380;-71
2023/06/26 10:30:58;;;;;;;9.13;3.60;;;;;;;26.83;36.05;99998.34;4234698;28;21418;-72
2023/06/26 10:33:25;;;;;;;5.33;3.30;;;;;;;27.23;34.46;99990.53;4222516;28;20351;-70
2023/06/26 10:35:52;;;;;;;4.83;3.60;;;;;;;27.22;35.43;99988.84;4236382;28;20414;-70
2023/06/26 10:38:19;;;;;;;5.93;3.37;;;;;;;27.95;32.39;99965.78;4241583;28;20243;-72
2023/06/26 10:40:48;;;;;;;9.17;3.43;;;;;;;28.10;32.39;99972.50;4238062;28;20292;-72
2023/06/26 10:43:16;;;;;;;5.27;3.37;;;;;;;27.96;32.76;99969.41;4252049;28;20222;-71
2023/06/26 10:45:52;;;;;;;5.20;3.27;;;;;;;27.54;33.20;99968.47;4244621;28;20696;-70
2023/06/26 10:48:19;;;;;;;9.77;3.10;;;;;;;28.16;32.75;99968.66;4246552;28;20254;-73
2023/06/26 10:50:49;;;;;;;5.32;3.15;;;;;;;28.34;32.29;99969.19;4240018;28;23199;-71
2023/06/26 10:53:20;;;;;;;5.50;3.22;;;;;;;28.21;32.78;99968.66;4245228;28;21728;-74
2023/06/26 10:55:56;;;;;;;7.30;3.40;;;;;;;28.35;33.26;99971.72;4253249;28;20313;-74
2023/06/26 10:58:30;;;;;;;8.35;3.58;;;;;;;28.45;32.55;99959.75;4228612;28;20233;-72
2023/06/26 11:01:14;;;;;;;6.80;3.30;;;;;;;28.25;33.29;99964.19;4240510;28;22237;-73
2023/06/26 11:03:44;;;;;;;5.60;3.30;;;;;;;28.10;32.72;99961.38;4239064;28;20872;-74
2023/06/26 11:06:15;;;;;;;7.35;3.40;;;;;;;27.93;34.24;99951.34;4241724;28;20243;-75
2023/06/26 11:08:54;;;;;;;5.43;3.40;;;;;;;28.40;32.84;99956.97;4233127;28;20384;-71
2023/06/26 11:11:54;;;;;;;7.80;3.30;;;;;;;28.54;31.99;99952.50;4237772;28;20638;-73
2023/06/26 11:14:22;;;;;;;8.05;3.63;;;;;;;28.38;33.19;99956.41;4241313;28;20373;-73
2023/06/26 11:16:49;;;;;;;5.78;3.25;;;;;;;28.78;32.29;99944.44;4243422;28;20232;-73
2023/06/26 11:19:19;;;;;;;6.90;3.97;;;;;;;28.60;32.73;99933.81;4253422;28;20243;-75
2023/06/26 11:21:47;;;;;;;6.90;3.50;;;;;;;28.21;33.46;99949.16;4243714;28;20227;-74
2023/06/26 11:24:14;;;;;;;7.90;3.10;;;;;;;28.09;32.11;99938.31;4231380;28;20234;-72
2023/06/26 11:26:41;;;;;;;7.30;3.10;;;;;;;27.75;32.05;99946.28;4250259;28;20234;-72